sensor_id;sensor_type;location;lat;lon;timestamp;pressure;altitude;pressure_sealevel;temperature;humidity
42705;BME280;28342;42.594;23.414;2022-10-16T00:00:21;95150.88;;;9.88;76.64
42705;BME280;28342;42.594;23.414;2022-10-16T00:02:46;95152.38;;;9.95;76.39
42705;BME280;28342;42.594;23.414;2022-10-16T00:05:11;95153.44;;;9.94;76.45
42705;BME280;28342;42.594;23.414;2022-10-16T00:07:37;95151.88;;;9.93;76.53
42705;BME280;28342;42.594;23.414;2022-10-16T00:10:02;95161.41;;;9.94;76.06
42705;BME280;28342;42.594;23.414;2022-10-16T00:12:28;95158.31;;;9.86;75.64
42705;BME280;28342;42.594;23.414;2022-10-16T00:14:53;95167.34;;;9.85;74.85
42705;BME280;28342;42.594;23.414;2022-10-16T00:17:19;95164.69;;;9.85;74.65
42705;BME280;28342;42.594;23.414;2022-10-16T00:19:44;95155.97;;;9.85;74.49
42705;BME280;28342;42.594;23.414;2022-10-16T00:22:10;95165.31;;;9.77;74.07
42705;BME280;28342;42.594;23.414;2022-10-16T00:24:36;95169.63;;;9.73;74.40
42705;BME280;28342;42.594;23.414;2022-10-16T00:27:01;95173.91;;;9.69;74.34
42705;BME280;28342;42.594;23.414;2022-10-16T00:29:27;95179.78;;;9.66;74.10
42705;BME280;28342;42.594;23.414;2022-10-16T00:31:52;95171.97;;;9.56;73.92
42705;BME280;28342;42.594;23.414;2022-10-16T00:34:18;95168.31;;;9.52;73.99
42705;BME280;28342;42.594;23.414;2022-10-16T00:36:43;95166.00;;;9.45;73.65
42705;BME280;28342;42.594;23.414;2022-10-16T00:39:08;95174.72;;;9.46;73.83
42705;BME280;28342;42.594;23.414;2022-10-16T00:41:34;95174.88;;;9.36;74.23
42705;BME280;28342;42.594;23.414;2022-10-16T00:44:02;95180.16;;;9.36;74.44
42705;BME280;28342;42.594;23.414;2022-10-16T00:46:38;95171.81;;;9.23;74.59
42705;BME280;28342;42.594;23.414;2022-10-16T00:49:13;95160.38;;;9.04;74.74
42705;BME280;28342;42.594;23.414;2022-10-16T00:51:42;95178.53;;;8.87;75.38
42705;BME280;28342;42.594;23.414;2022-10-16T00:54:20;95184.66;;;8.53;76.69
42705;BME280;28342;42.594;23.414;2022-10-16T00:56:47;95185.81;;;8.37;78.43
42705;BME280;28342;42.594;23.414;2022-10-16T00:59:38;95183.69;;;8.39;78.63
42705;BME280;28342;42.594;23.414;2022-10-16T01:02:07;95137.75;;;8.30;77.58
42705;BME280;28342;42.594;23.414;2022-10-16T01:04:42;95191.66;;;8.34;79.07
42705;BME280;28342;42.594;23.414;2022-10-16T01:07:19;95183.19;;;8.32;79.37
42705;BME280;28342;42.594;23.414;2022-10-16T01:10:21;95184.19;;;8.46;79.06
42705;BME280;28342;42.594;23.414;2022-10-16T01:13:00;95190.50;;;8.50;78.48
42705;BME280;28342;42.594;23.414;2022-10-16T01:15:54;95197.31;;;8.56;78.25
42705;BME280;28342;42.594;23.414;2022-10-16T01:18:46;95205.94;;;8.67;77.72
42705;BME280;28342;42.594;23.414;2022-10-16T01:21:29;95209.44;;;8.62;77.20
42705;BME280;28342;42.594;23.414;2022-10-16T01:29:32;95168.47;;;8.21;78.30
42705;BME280;28342;42.594;23.414;2022-10-16T01:32:05;95182.59;;;8.45;77.96
42705;BME280;28342;42.594;23.414;2022-10-16T01:34:37;95182.03;;;8.48;77.75
42705;BME280;28342;42.594;23.414;2022-10-16T01:37:11;95176.84;;;8.38;78.08
42705;BME280;28342;42.594;23.414;2022-10-16T01:39:38;95168.88;;;8.43;77.95
42705;BME280;28342;42.594;23.414;2022-10-16T01:42:16;95169.47;;;8.30;77.83
42705;BME280;28342;42.594;23.414;2022-10-16T01:44:45;95188.50;;;8.32;78.00
42705;BME280;28342;42.594;23.414;2022-10-16T01:47:13;95183.69;;;8.39;77.77
42705;BME280;28342;42.594;23.414;2022-10-16T01:49:39;95183.41;;;8.41;77.13
42705;BME280;28342;42.594;23.414;2022-10-16T01:52:09;95196.34;;;8.42;77.26
42705;BME280;28342;42.594;23.414;2022-10-16T01:54:37;95193.72;;;8.42;77.47
42705;BME280;28342;42.594;23.414;2022-10-16T01:57:06;95180.56;;;8.32;77.61
42705;BME280;28342;42.594;23.414;2022-10-16T01:59:36;95187.16;;;8.34;77.85
42705;BME280;28342;42.594;23.414;2022-10-16T02:02:07;95196.41;;;8.37;77.86
42705;BME280;28342;42.594;23.414;2022-10-16T02:04:37;95192.75;;;8.28;78.32
42705;BME280;28342;42.594;23.414;2022-10-16T02:07:04;95193.78;;;8.32;78.19
42705;BME280;28342;42.594;23.414;2022-10-16T02:09:31;95175.88;;;8.19;78.58
42705;BME280;28342;42.594;23.414;2022-10-16T02:12:01;95199.59;;;8.34;78.78
42705;BME280;28342;42.594;23.414;2022-10-16T02:14:29;95206.19;;;8.31;79.96
42705;BME280;28342;42.594;23.414;2022-10-16T02:16:54;95202.84;;;8.21;80.42
42705;BME280;28342;42.594;23.414;2022-10-16T02:19:20;95212.28;;;8.27;80.32
42705;BME280;28342;42.594;23.414;2022-10-16T02:21:54;95200.78;;;8.13;80.49
42705;BME280;28342;42.594;23.414;2022-10-16T02:24:41;95204.50;;;8.06;80.52
42705;BME280;28342;42.594;23.414;2022-10-16T02:27:17;95218.19;;;8.19;80.41
42705;BME280;28342;42.594;23.414;2022-10-16T02:29:49;95217.72;;;8.06;80.80
42705;BME280;28342;42.594;23.414;2022-10-16T02:32:21;95201.63;;;8.03;80.86
42705;BME280;28342;42.594;23.414;2022-10-16T02:34:49;95216.63;;;8.13;81.35
42705;BME280;28342;42.594;23.414;2022-10-16T02:37:16;95206.66;;;7.99;81.03
42705;BME280;28342;42.594;23.414;2022-10-16T02:39:43;95213.44;;;8.10;81.01
42705;BME280;28342;42.594;23.414;2022-10-16T02:42:13;95208.72;;;8.13;81.00
42705;BME280;28342;42.594;23.414;2022-10-16T02:44:39;95210.56;;;8.12;81.22
42705;BME280;28342;42.594;23.414;2022-10-16T02:47:05;95198.16;;;8.07;80.81
42705;BME280;28342;42.594;23.414;2022-10-16T02:49:30;95227.13;;;8.23;80.83
42705;BME280;28342;42.594;23.414;2022-10-16T02:51:56;95210.25;;;8.19;80.73
42705;BME280;28342;42.594;23.414;2022-10-16T02:54:21;95226.56;;;8.26;80.59
42705;BME280;28342;42.594;23.414;2022-10-16T02:56:46;95221.78;;;8.33;80.06
42705;BME280;28342;42.594;23.414;2022-10-16T02:59:12;95220.75;;;8.29;80.36
42705;BME280;28342;42.594;23.414;2022-10-16T03:01:37;95232.91;;;8.30;80.43
42705;BME280;28342;42.594;23.414;2022-10-16T03:04:03;95235.28;;;8.31;80.35
42705;BME280;28342;42.594;23.414;2022-10-16T03:06:28;95235.78;;;8.38;80.49
42705;BME280;28342;42.594;23.414;2022-10-16T03:08:54;95240.81;;;8.35;80.93
42705;BME280;28342;42.594;23.414;2022-10-16T03:11:19;95230.00;;;8.31;80.47
42705;BME280;28342;42.594;23.414;2022-10-16T03:13:44;95225.00;;;8.25;80.41
42705;BME280;28342;42.594;23.414;2022-10-16T03:16:10;95230.31;;;8.20;81.51
42705;BME280;28342;42.594;23.414;2022-10-16T03:18:35;95226.13;;;8.14;81.26
42705;BME280;28342;42.594;23.414;2022-10-16T03:21:01;95235.09;;;8.18;81.36
42705;BME280;28342;42.594;23.414;2022-10-16T03:23:26;95241.41;;;8.22;81.37
42705;BME280;28342;42.594;23.414;2022-10-16T03:25:52;95251.50;;;8.15;81.73
42705;BME280;28342;42.594;23.414;2022-10-16T03:28:17;95237.22;;;8.10;81.45
42705;BME280;28342;42.594;23.414;2022-10-16T03:30:43;95243.59;;;8.09;82.01
42705;BME280;28342;42.594;23.414;2022-10-16T03:33:08;95246.50;;;8.08;81.98
42705;BME280;28342;42.594;23.414;2022-10-16T03:35:34;95255.22;;;8.14;81.55
42705;BME280;28342;42.594;23.414;2022-10-16T03:37:59;95244.38;;;8.10;81.61
42705;BME280;28342;42.594;23.414;2022-10-16T03:40:25;95248.38;;;8.02;82.21
42705;BME280;28342;42.594;23.414;2022-10-16T03:42:51;95231.50;;;7.93;81.84
42705;BME280;28342;42.594;23.414;2022-10-16T03:45:17;95242.31;;;8.02;80.68
42705;BME280;28342;42.594;23.414;2022-10-16T03:47:42;95251.22;;;8.11;80.13
42705;BME280;28342;42.594;23.414;2022-10-16T03:50:08;95226.75;;;7.95;79.84
42705;BME280;28342;42.594;23.414;2022-10-16T03:52:34;95237.81;;;8.02;80.82
42705;BME280;28342;42.594;23.414;2022-10-16T03:54:59;95242.59;;;7.95;81.71
42705;BME280;28342;42.594;23.414;2022-10-16T03:57:25;95236.53;;;7.95;81.63
42705;BME280;28342;42.594;23.414;2022-10-16T03:59:50;95241.03;;;7.94;81.78
42705;BME280;28342;42.594;23.414;2022-10-16T04:02:16;95251.06;;;7.97;81.32
42705;BME280;28342;42.594;23.414;2022-10-16T04:04:41;95246.31;;;7.94;80.22
42705;BME280;28342;42.594;23.414;2022-10-16T04:07:07;95247.69;;;7.87;79.51
42705;BME280;28342;42.594;23.414;2022-10-16T04:09:32;95247.94;;;7.80;80.72
42705;BME280;28342;42.594;23.414;2022-10-16T04:11:57;95249.63;;;7.66;82.46
42705;BME280;28342;42.594;23.414;2022-10-16T04:14:23;95245.69;;;7.53;80.91
42705;BME280;28342;42.594;23.414;2022-10-16T04:16:48;95228.06;;;7.28;80.92
42705;BME280;28342;42.594;23.414;2022-10-16T04:19:13;95246.22;;;7.50;82.20
42705;BME280;28342;42.594;23.414;2022-10-16T04:21:39;95250.22;;;7.37;82.96
42705;BME280;28342;42.594;23.414;2022-10-16T04:24:04;95247.31;;;7.39;82.95
42705;BME280;28342;42.594;23.414;2022-10-16T04:26:30;95236.19;;;7.47;83.25
42705;BME280;28342;42.594;23.414;2022-10-16T04:28:55;95238.56;;;7.48;83.45
42705;BME280;28342;42.594;23.414;2022-10-16T04:31:21;95238.56;;;7.48;83.23
42705;BME280;28342;42.594;23.414;2022-10-16T04:33:46;95239.38;;;7.44;83.09
42705;BME280;28342;42.594;23.414;2022-10-16T04:36:11;95235.69;;;7.45;82.84
42705;BME280;28342;42.594;23.414;2022-10-16T04:38:37;95233.59;;;7.42;82.64
42705;BME280;28342;42.594;23.414;2022-10-16T04:41:05;95266.03;;;7.53;82.46
42705;BME280;28342;42.594;23.414;2022-10-16T04:43:30;95262.88;;;7.45;83.22
42705;BME280;28342;42.594;23.414;2022-10-16T04:45:56;95264.72;;;7.45;83.45
42705;BME280;28342;42.594;23.414;2022-10-16T04:48:21;95272.66;;;7.35;84.05
42705;BME280;28342;42.594;23.414;2022-10-16T04:50:47;95271.84;;;7.44;83.35
42705;BME280;28342;42.594;23.414;2022-10-16T04:53:12;95280.53;;;7.55;82.98
42705;BME280;28342;42.594;23.414;2022-10-16T04:55:38;95284.50;;;7.58;82.88
42705;BME280;28342;42.594;23.414;2022-10-16T04:58:04;95282.66;;;7.53;82.00
42705;BME280;28342;42.594;23.414;2022-10-16T05:00:29;95266.53;;;7.49;82.35
42705;BME280;28342;42.594;23.414;2022-10-16T05:02:55;95280.50;;;7.60;82.11
42705;BME280;28342;42.594;23.414;2022-10-16T05:05:20;95274.72;;;7.48;82.15
42705;BME280;28342;42.594;23.414;2022-10-16T05:07:47;95287.91;;;7.58;82.05
42705;BME280;28342;42.594;23.414;2022-10-16T05:10:12;95263.69;;;7.31;82.76
42705;BME280;28342;42.594;23.414;2022-10-16T05:12:38;95282.66;;;7.53;82.66
42705;BME280;28342;42.594;23.414;2022-10-16T05:15:03;95299.81;;;7.56;82.83
42705;BME280;28342;42.594;23.414;2022-10-16T05:17:29;95304.28;;;7.50;81.99
42705;BME280;28342;42.594;23.414;2022-10-16T05:19:54;95298.78;;;7.52;81.79
42705;BME280;28342;42.594;23.414;2022-10-16T05:22:20;95298.78;;;7.52;82.65
42705;BME280;28342;42.594;23.414;2022-10-16T05:24:45;95311.94;;;7.62;82.12
42705;BME280;28342;42.594;23.414;2022-10-16T05:27:11;95295.56;;;7.49;82.55
42705;BME280;28342;42.594;23.414;2022-10-16T05:29:47;95319.56;;;7.63;81.85
42705;BME280;28342;42.594;23.414;2022-10-16T05:32:24;95315.13;;;7.54;82.92
42705;BME280;28342;42.594;23.414;2022-10-16T05:35:05;95315.38;;;7.57;82.96
42705;BME280;28342;42.594;23.414;2022-10-16T05:37:50;95311.69;;;7.48;83.14
42705;BME280;28342;42.594;23.414;2022-10-16T05:40:25;95312.75;;;7.52;82.67
42705;BME280;28342;42.594;23.414;2022-10-16T05:42:54;95306.16;;;7.44;82.95
42705;BME280;28342;42.594;23.414;2022-10-16T05:45:20;95307.19;;;7.48;83.53
42705;BME280;28342;42.594;23.414;2022-10-16T05:47:45;95300.63;;;7.41;83.40
42705;BME280;28342;42.594;23.414;2022-10-16T05:50:10;95316.44;;;7.56;83.33
42705;BME280;28342;42.594;23.414;2022-10-16T05:52:36;95327.25;;;7.60;83.06
42705;BME280;28342;42.594;23.414;2022-10-16T05:55:02;95321.44;;;7.58;83.64
42705;BME280;28342;42.594;23.414;2022-10-16T05:57:27;95329.34;;;7.63;83.59
42705;BME280;28342;42.594;23.414;2022-10-16T05:59:52;95314.06;;;7.55;83.53
42705;BME280;28342;42.594;23.414;2022-10-16T06:02:18;95310.09;;;7.57;83.34
42705;BME280;28342;42.594;23.414;2022-10-16T06:04:45;95331.47;;;7.71;83.01
42705;BME280;28342;42.594;23.414;2022-10-16T06:07:11;95338.34;;;7.67;83.79
42705;BME280;28342;42.594;23.414;2022-10-16T06:09:36;95328.84;;;7.66;84.20
42705;BME280;28342;42.594;23.414;2022-10-16T06:12:02;95335.16;;;7.60;84.67
42705;BME280;28342;42.594;23.414;2022-10-16T06:14:27;95340.97;;;7.67;83.90
42705;BME280;28342;42.594;23.414;2022-10-16T06:16:53;95347.81;;;7.73;83.98
42705;BME280;28342;42.594;23.414;2022-10-16T06:19:18;95361.00;;;7.83;83.64
42705;BME280;28342;42.594;23.414;2022-10-16T06:21:44;95344.38;;;7.77;83.04
42705;BME280;28342;42.594;23.414;2022-10-16T06:24:10;95329.88;;;7.70;83.13
42705;BME280;28342;42.594;23.414;2022-10-16T06:26:36;95353.56;;;7.95;82.96
42705;BME280;28342;42.594;23.414;2022-10-16T06:29:02;95348.81;;;7.92;82.94
42705;BME280;28342;42.594;23.414;2022-10-16T06:31:28;95349.84;;;7.96;83.18
42705;BME280;28342;42.594;23.414;2022-10-16T06:33:56;95361.19;;;8.07;83.81
42705;BME280;28342;42.594;23.414;2022-10-16T06:36:25;95343.25;;;7.99;83.30
42705;BME280;28342;42.594;23.414;2022-10-16T06:38:51;95365.94;;;8.10;84.11
42705;BME280;28342;42.594;23.414;2022-10-16T06:41:20;95378.34;;;8.15;83.53
42705;BME280;28342;42.594;23.414;2022-10-16T06:43:46;95367.25;;;8.13;83.66
42705;BME280;28342;42.594;23.414;2022-10-16T06:46:14;95356.97;;;8.06;83.52
42705;BME280;28342;42.594;23.414;2022-10-16T06:48:40;95367.75;;;8.20;83.53
42705;BME280;28342;42.594;23.414;2022-10-16T06:53:33;95380.41;;;8.28;83.15
42705;BME280;28342;42.594;23.414;2022-10-16T06:56:14;95357.16;;;8.25;82.99
42705;BME280;28342;42.594;23.414;2022-10-16T06:58:40;95390.66;;;8.50;82.13
42705;BME280;28342;42.594;23.414;2022-10-16T07:01:07;95384.34;;;8.46;82.38
42705;BME280;28342;42.594;23.414;2022-10-16T07:03:33;95380.06;;;8.50;82.19
42705;BME280;28342;42.594;23.414;2022-10-16T07:06:05;95378.66;;;8.67;82.32
42705;BME280;28342;42.594;23.414;2022-10-16T07:08:33;95394.00;;;8.65;81.25
42705;BME280;28342;42.594;23.414;2022-10-16T07:11:04;95397.91;;;8.78;81.81
42705;BME280;28342;42.594;23.414;2022-10-16T07:13:32;95376.44;;;8.85;82.43
42705;BME280;28342;42.594;23.414;2022-10-16T07:15:57;95383.81;;;8.93;81.76
42705;BME280;28342;42.594;23.414;2022-10-16T07:18:23;95394.31;;;9.03;81.63
42705;BME280;28342;42.594;23.414;2022-10-16T07:20:52;95378.97;;;9.00;81.22
42705;BME280;28342;42.594;23.414;2022-10-16T07:23:17;95385.78;;;9.11;80.91
42705;BME280;28342;42.594;23.414;2022-10-16T07:25:43;95391.59;;;9.13;81.28
42705;BME280;28342;42.594;23.414;2022-10-16T07:28:08;95383.59;;;9.23;81.01
42705;BME280;28342;42.594;23.414;2022-10-16T07:30:35;95375.22;;;9.11;80.54
42705;BME280;28342;42.594;23.414;2022-10-16T07:33:02;95385.69;;;9.26;80.62
42705;BME280;28342;42.594;23.414;2022-10-16T07:35:27;95394.56;;;9.41;81.05
42705;BME280;28342;42.594;23.414;2022-10-16T07:37:53;95391.22;;;9.59;81.26
42705;BME280;28342;42.594;23.414;2022-10-16T07:40:18;95397.69;;;9.77;79.95
42705;BME280;28342;42.594;23.414;2022-10-16T07:42:43;95401.50;;;9.95;80.31
42705;BME280;28342;42.594;23.414;2022-10-16T07:45:09;95399.72;;;10.14;79.55
42705;BME280;28342;42.594;23.414;2022-10-16T07:47:35;95399.00;;;10.32;77.62
42705;BME280;28342;42.594;23.414;2022-10-16T07:50:00;95400.34;;;10.54;77.62
42705;BME280;28342;42.594;23.414;2022-10-16T07:52:26;95397.94;;;10.76;76.86
42705;BME280;28342;42.594;23.414;2022-10-16T07:54:51;95394.66;;;11.03;75.39
42705;BME280;28342;42.594;23.414;2022-10-16T07:57:16;95401.34;;;11.33;75.69
42705;BME280;28342;42.594;23.414;2022-10-16T07:59:45;95386.19;;;11.52;74.02
42705;BME280;28342;42.594;23.414;2022-10-16T08:02:11;95404.81;;;11.85;73.40
42705;BME280;28342;42.594;23.414;2022-10-16T08:04:36;95401.59;;;12.15;71.58
42705;BME280;28342;42.594;23.414;2022-10-16T08:07:02;95414.63;;;12.44;70.39
42705;BME280;28342;42.594;23.414;2022-10-16T08:09:27;95392.72;;;12.61;68.68
42705;BME280;28342;42.594;23.414;2022-10-16T08:11:52;95402.56;;;12.74;67.76
42705;BME280;28342;42.594;23.414;2022-10-16T08:14:18;95404.59;;;13.05;68.00
42705;BME280;28342;42.594;23.414;2022-10-16T08:16:43;95407.53;;;13.39;69.15
42705;BME280;28342;42.594;23.414;2022-10-16T08:19:09;95395.78;;;13.63;69.04
42705;BME280;28342;42.594;23.414;2022-10-16T08:21:34;95408.25;;;13.98;67.90
42705;BME280;28342;42.594;23.414;2022-10-16T08:23:59;95399.44;;;14.29;66.81
42705;BME280;28342;42.594;23.414;2022-10-16T08:26:26;95386.50;;;14.53;66.10
42705;BME280;28342;42.594;23.414;2022-10-16T08:28:52;95398.84;;;14.89;64.91
42705;BME280;28342;42.594;23.414;2022-10-16T08:31:17;95395.72;;;15.04;63.11
42705;BME280;28342;42.594;23.414;2022-10-16T08:33:44;95383.94;;;15.22;63.42
42705;BME280;28342;42.594;23.414;2022-10-16T08:36:11;95398.72;;;15.54;60.97
42705;BME280;28342;42.594;23.414;2022-10-16T08:38:37;95393.81;;;15.82;61.20
42705;BME280;28342;42.594;23.414;2022-10-16T08:44:24;95410.09;;;16.24;58.19
42705;BME280;28342;42.594;23.414;2022-10-16T08:47:41;95400.41;;;16.40;56.54
42705;BME280;28342;42.594;23.414;2022-10-16T08:49:47;95401.00;;;16.55;53.24
42705;BME280;28342;42.594;23.414;2022-10-16T08:52:16;95395.72;;;16.67;53.99
42705;BME280;28342;42.594;23.414;2022-10-16T08:54:44;95406.19;;;16.89;52.68
42705;BME280;28342;42.594;23.414;2022-10-16T08:57:22;95398.13;;;16.89;51.50
42705;BME280;28342;42.594;23.414;2022-10-16T08:59:49;95391.59;;;16.99;50.87
42705;BME280;28342;42.594;23.414;2022-10-16T09:02:37;95407.97;;;17.27;50.32
42705;BME280;28342;42.594;23.414;2022-10-16T09:08:07;95395.63;;;17.35;48.10
42705;BME280;28342;42.594;23.414;2022-10-16T09:13:26;95402.53;;;17.56;47.51
42705;BME280;28342;42.594;23.414;2022-10-16T09:16:01;95347.41;;;17.26;47.05
42705;BME280;28342;42.594;23.414;2022-10-16T09:21:16;95402.78;;;17.63;44.77
42705;BME280;28342;42.594;23.414;2022-10-16T09:23:43;95399.59;;;17.70;46.48
42705;BME280;28342;42.594;23.414;2022-10-16T09:26:11;95394.06;;;17.67;46.82
42705;BME280;28342;42.594;23.414;2022-10-16T09:28:37;95394.16;;;17.91;46.76
42705;BME280;28342;42.594;23.414;2022-10-16T09:31:03;95386.81;;;18.00;45.69
42705;BME280;28342;42.594;23.414;2022-10-16T09:33:33;95395.69;;;18.13;45.44
42705;BME280;28342;42.594;23.414;2022-10-16T09:36:02;95392.78;;;18.18;44.68
42705;BME280;28342;42.594;23.414;2022-10-16T09:38:33;95386.19;;;18.28;43.72
42705;BME280;28342;42.594;23.414;2022-10-16T09:41:00;95393.13;;;18.29;44.11
42705;BME280;28342;42.594;23.414;2022-10-16T09:43:32;95369.41;;;18.18;43.20
42705;BME280;28342;42.594;23.414;2022-10-16T09:46:04;95385.63;;;18.34;44.26
42705;BME280;28342;42.594;23.414;2022-10-16T09:48:44;95379.94;;;18.48;45.71
42705;BME280;28342;42.594;23.414;2022-10-16T09:51:23;95360.91;;;18.53;44.61
42705;BME280;28342;42.594;23.414;2022-10-16T09:53:54;95379.06;;;18.68;43.98
42705;BME280;28342;42.594;23.414;2022-10-16T09:56:23;95362.94;;;18.68;43.94
42705;BME280;28342;42.594;23.414;2022-10-16T09:58:53;95361.38;;;18.67;42.79
42705;BME280;28342;42.594;23.414;2022-10-16T10:01:20;95371.22;;;18.75;42.94
42705;BME280;28342;42.594;23.414;2022-10-16T10:03:47;95371.81;;;18.69;43.41
42705;BME280;28342;42.594;23.414;2022-10-16T10:06:21;95364.06;;;18.55;43.35
42705;BME280;28342;42.594;23.414;2022-10-16T10:11:57;95368.97;;;18.29;43.24
42705;BME280;28342;42.594;23.414;2022-10-16T10:16:51;95354.19;;;18.23;43.46
42705;BME280;28342;42.594;23.414;2022-10-16T10:19:20;95341.88;;;18.09;43.62
42705;BME280;28342;42.594;23.414;2022-10-16T10:21:46;95356.41;;;18.08;43.74
42705;BME280;28342;42.594;23.414;2022-10-16T10:24:13;95345.66;;;17.96;44.68
42705;BME280;28342;42.594;23.414;2022-10-16T10:26:48;95353.94;;;18.03;44.88
42705;BME280;28342;42.594;23.414;2022-10-16T10:32:17;95344.97;;;17.99;45.78
42705;BME280;28342;42.594;23.414;2022-10-16T10:43:18;95338.56;;;17.79;44.75
42705;BME280;28342;42.594;23.414;2022-10-16T10:45:55;95335.22;;;17.82;44.71
42705;BME280;28342;42.594;23.414;2022-10-16T10:51:32;95335.22;;;17.82;44.89
42705;BME280;28342;42.594;23.414;2022-10-16T10:54:14;95334.66;;;17.77;45.27
42705;BME280;28342;42.594;23.414;2022-10-16T10:56:58;95334.53;;;17.73;45.49
42705;BME280;28342;42.594;23.414;2022-10-16T11:07:57;95314.88;;;17.60;45.55
42705;BME280;28342;42.594;23.414;2022-10-16T11:10:27;95297.53;;;17.46;43.97
42705;BME280;28342;42.594;23.414;2022-10-16T11:13:08;95318.66;;;17.68;47.52
42705;BME280;28342;42.594;23.414;2022-10-16T11:15:37;95310.44;;;17.65;44.70
42705;BME280;28342;42.594;23.414;2022-10-16T11:18:08;95301.63;;;17.64;46.08
42705;BME280;28342;42.594;23.414;2022-10-16T11:20:42;95295.31;;;17.60;43.39
42705;BME280;28342;42.594;23.414;2022-10-16T11:23:18;95306.56;;;17.74;42.50
42705;BME280;28342;42.594;23.414;2022-10-16T11:25:46;95304.47;;;17.80;43.04
42705;BME280;28342;42.594;23.414;2022-10-16T11:28:20;95296.66;;;17.87;43.58
42705;BME280;28342;42.594;23.414;2022-10-16T11:31:08;95294.22;;;17.94;40.67
42705;BME280;28342;42.594;23.414;2022-10-16T11:33:49;95276.63;;;17.84;40.72
42705;BME280;28342;42.594;23.414;2022-10-16T11:36:31;95285.06;;;18.07;41.90
42705;BME280;28342;42.594;23.414;2022-10-16T11:41:48;95293.44;;;18.30;39.82
42705;BME280;28342;42.594;23.414;2022-10-16T11:46:44;95284.00;;;18.48;39.00
42705;BME280;28342;42.594;23.414;2022-10-16T11:49:15;95295.75;;;18.56;38.31
42705;BME280;28342;42.594;23.414;2022-10-16T11:51:47;95302.25;;;18.67;40.33
42705;BME280;28342;42.594;23.414;2022-10-16T11:54:22;95311.31;;;18.75;38.57
42705;BME280;28342;42.594;23.414;2022-10-16T11:56:53;95293.97;;;18.72;37.89
42705;BME280;28342;42.594;23.414;2022-10-16T12:07:06;95295.25;;;19.03;39.35
42705;BME280;28342;42.594;23.414;2022-10-16T12:09:36;95277.31;;;18.95;37.59
42705;BME280;28342;42.594;23.414;2022-10-16T12:12:03;95297.44;;;19.13;37.94
42705;BME280;28342;42.594;23.414;2022-10-16T12:17:24;95295.88;;;19.12;35.75
42705;BME280;28342;42.594;23.414;2022-10-16T12:20:01;95270.09;;;19.11;37.21
42705;BME280;28342;42.594;23.414;2022-10-16T12:22:29;95281.94;;;19.22;35.99
42705;BME280;28342;42.594;23.414;2022-10-16T12:24:56;95286.19;;;19.23;36.55
42705;BME280;28342;42.594;23.414;2022-10-16T12:27:27;95288.63;;;19.28;35.04
42705;BME280;28342;42.594;23.414;2022-10-16T12:29:56;95292.56;;;19.03;33.39
42705;BME280;28342;42.594;23.414;2022-10-16T12:32:42;95291.88;;;19.06;34.54
42705;BME280;28342;42.594;23.414;2022-10-16T12:35:29;95284.13;;;19.04;34.80
42705;BME280;28342;42.594;23.414;2022-10-16T12:38:05;95295.00;;;19.08;35.73
42705;BME280;28342;42.594;23.414;2022-10-16T12:40:34;95293.03;;;18.93;35.16
42705;BME280;28342;42.594;23.414;2022-10-16T12:43:12;95287.19;;;18.91;34.99
42705;BME280;28342;42.594;23.414;2022-10-16T12:46:43;95283.81;;;18.94;37.07
42705;BME280;28342;42.594;23.414;2022-10-16T12:48:44;95292.66;;;19.06;35.71
42705;BME280;28342;42.594;23.414;2022-10-16T12:54:10;95289.44;;;18.89;35.31
42705;BME280;28342;42.594;23.414;2022-10-16T12:59:31;95296.56;;;19.09;36.18
42705;BME280;28342;42.594;23.414;2022-10-16T13:04:53;95312.38;;;18.98;33.96
42705;BME280;28342;42.594;23.414;2022-10-16T13:10:40;95302.91;;;18.89;36.29
42705;BME280;28342;42.594;23.414;2022-10-16T13:15:53;95318.75;;;19.06;36.42
42705;BME280;28342;42.594;23.414;2022-10-16T13:18:34;95308.00;;;19.06;35.94
42705;BME280;28342;42.594;23.414;2022-10-16T13:21:20;95310.44;;;19.11;35.51
42705;BME280;28342;42.594;23.414;2022-10-16T13:24:12;95306.13;;;18.94;35.82
42705;BME280;28342;42.594;23.414;2022-10-16T13:26:49;95312.06;;;19.00;37.53
42705;BME280;28342;42.594;23.414;2022-10-16T13:29:18;95304.00;;;19.00;36.33
42705;BME280;28342;42.594;23.414;2022-10-16T13:31:44;95308.47;;;18.96;36.06
42705;BME280;28342;42.594;23.414;2022-10-16T13:34:17;95308.69;;;19.03;37.21
42705;BME280;28342;42.594;23.414;2022-10-16T13:36:46;95306.19;;;19.10;38.30
42705;BME280;28342;42.594;23.414;2022-10-16T13:41:39;95308.59;;;18.99;38.14
42705;BME280;28342;42.594;23.414;2022-10-16T13:44:13;95307.25;;;18.93;39.25
42705;BME280;28342;42.594;23.414;2022-10-16T13:46:42;95318.34;;;18.92;37.12
42705;BME280;28342;42.594;23.414;2022-10-16T13:49:16;95305.59;;;18.76;36.29
42705;BME280;28342;42.594;23.414;2022-10-16T13:51:47;95300.22;;;18.76;36.58
42705;BME280;28342;42.594;23.414;2022-10-16T13:54:18;95302.56;;;18.78;36.20
42705;BME280;28342;42.594;23.414;2022-10-16T13:56:44;95299.78;;;18.74;37.49
42705;BME280;28342;42.594;23.414;2022-10-16T13:59:34;95311.88;;;18.80;38.43
42705;BME280;28342;42.594;23.414;2022-10-16T14:02:08;95317.03;;;18.73;37.50
42705;BME280;28342;42.594;23.414;2022-10-16T14:04:40;95317.81;;;18.74;38.41
42705;BME280;28342;42.594;23.414;2022-10-16T14:07:05;95316.16;;;18.69;37.80
42705;BME280;28342;42.594;23.414;2022-10-16T14:09:38;95318.72;;;18.66;37.54
42705;BME280;28342;42.594;23.414;2022-10-16T14:12:10;95303.47;;;18.58;36.03
42705;BME280;28342;42.594;23.414;2022-10-16T14:14:45;95324.44;;;18.64;36.24
42705;BME280;28342;42.594;23.414;2022-10-16T14:17:28;95326.13;;;18.69;38.32
42705;BME280;28342;42.594;23.414;2022-10-16T14:19:56;95336.84;;;18.57;38.53
42705;BME280;28342;42.594;23.414;2022-10-16T14:24:51;95326.44;;;18.55;37.40
42705;BME280;28342;42.594;23.414;2022-10-16T14:27:33;95332.47;;;18.52;37.37
42705;BME280;28342;42.594;23.414;2022-10-16T14:30:12;95336.50;;;18.46;37.82